createdAt,value
2019-03-19T00:00:48.494Z,100409.33
2019-03-19T00:03:53.700Z,100408.28
2019-03-19T00:06:58.898Z,100408.52
2019-03-19T00:10:04.041Z,100411.27
2019-03-19T00:13:09.244Z,100409.77
2019-03-19T00:16:14.481Z,100416.73
2019-03-19T00:19:19.610Z,100420.46
2019-03-19T00:22:25.889Z,100428.97
2019-03-19T00:25:31.128Z,100430.75
2019-03-19T00:28:36.272Z,100432.94
2019-03-19T00:31:41.344Z,100434.10
2019-03-19T00:34:46.542Z,100438.02
2019-03-19T00:37:51.767Z,100439.17
2019-03-19T00:40:57.923Z,100443.58
2019-03-19T00:44:04.313Z,100447.47
2019-03-19T00:47:09.469Z,100448.11
2019-03-19T00:50:14.778Z,100438.20
2019-03-19T00:53:20.136Z,100437.97
2019-03-19T00:56:25.330Z,100445.84
2019-03-19T00:59:30.507Z,100440.05
2019-03-19T01:02:35.667Z,100445.66
2019-03-19T01:05:40.876Z,100447.28
2019-03-19T01:08:46.115Z,100452.58
2019-03-19T01:11:51.244Z,100446.84
2019-03-19T01:14:56.400Z,100441.19
2019-03-19T01:18:01.594Z,100438.51
2019-03-19T01:21:06.796Z,100436.31
2019-03-19T01:24:11.935Z,100445.86
2019-03-19T01:27:17.109Z,100440.86
2019-03-19T01:30:22.298Z,100449.23
2019-03-19T01:33:27.425Z,100449.64
2019-03-19T01:36:32.627Z,100449.14
2019-03-19T01:39:37.775Z,100453.41
2019-03-19T01:42:42.947Z,100451.25
2019-03-19T01:45:48.090Z,100452.58
2019-03-19T01:48:53.298Z,100452.97
2019-03-19T01:51:58.408Z,100449.98
2019-03-19T01:55:03.733Z,100451.83
2019-03-19T01:58:08.889Z,100450.39
2019-03-19T02:01:14.083Z,100455.28
2019-03-19T02:04:19.150Z,100464.35
2019-03-19T02:07:24.371Z,100455.80
2019-03-19T02:10:29.493Z,100447.39
2019-03-19T02:13:34.690Z,100446.07
2019-03-19T02:16:39.841Z,100445.16
2019-03-19T02:19:45.038Z,100455.17
2019-03-19T02:22:50.162Z,100452.39
2019-03-19T02:25:55.341Z,100454.13
2019-03-19T02:29:00.519Z,100457.36
2019-03-19T02:32:05.703Z,100453.24
2019-03-19T02:35:11.521Z,100451.69
2019-03-19T02:38:16.730Z,100453.16
2019-03-19T02:41:21.828Z,100458.28
2019-03-19T02:44:27.119Z,100463.26
2019-03-19T02:47:32.346Z,100472.88
2019-03-19T02:50:37.514Z,100478.54
2019-03-19T02:53:42.741Z,100485.00
2019-03-19T02:56:47.846Z,100483.23
2019-03-19T02:59:53.040Z,100479.14
2019-03-19T03:02:58.164Z,100492.06
2019-03-19T03:06:03.323Z,100495.45
2019-03-19T03:09:08.523Z,100495.44
2019-03-19T03:12:13.661Z,100496.35
2019-03-19T03:15:18.822Z,100495.17
2019-03-19T03:18:23.951Z,100504.06
2019-03-19T03:21:29.150Z,100508.44
2019-03-19T03:24:35.378Z,100510.47
2019-03-19T03:27:40.533Z,100514.22
2019-03-19T03:30:45.721Z,100512.86
2019-03-19T03:33:50.921Z,100507.58
2019-03-19T03:36:56.081Z,100515.03
2019-03-19T03:40:01.300Z,100517.09
2019-03-19T03:43:06.517Z,100528.89
2019-03-19T03:46:11.662Z,100526.86
2019-03-19T03:49:16.792Z,100526.03
2019-03-19T03:52:22.010Z,100530.87
2019-03-19T03:55:27.146Z,100534.92
2019-03-19T03:58:32.339Z,100528.95
2019-03-19T04:01:37.536Z,100534.94
2019-03-19T04:04:42.690Z,100540.12
2019-03-19T04:07:47.938Z,100548.14
2019-03-19T04:10:53.074Z,100554.64
2019-03-19T04:13:58.230Z,100556.58
2019-03-19T04:17:03.303Z,100565.84
2019-03-19T04:20:08.629Z,100563.69
2019-03-19T04:23:13.765Z,100564.45
2019-03-19T04:26:18.915Z,100563.59
2019-03-19T04:29:24.036Z,100560.48
2019-03-19T04:32:29.203Z,100572.61
2019-03-19T04:35:34.310Z,100581.76
2019-03-19T04:38:39.506Z,100592.69
2019-03-19T04:41:44.814Z,100600.75
2019-03-19T04:44:49.965Z,100592.95
2019-03-19T04:47:55.121Z,100594.49
2019-03-19T04:51:00.250Z,100599.42
2019-03-19T04:54:05.371Z,100614.47
2019-03-19T04:57:10.538Z,100614.82
2019-03-19T05:00:15.948Z,100608.91
2019-03-19T05:03:21.084Z,100617.45
2019-03-19T05:06:26.264Z,100619.52
2019-03-19T05:09:31.467Z,100624.68
2019-03-19T05:12:36.611Z,100630.59
2019-03-19T05:15:41.760Z,100624.92
2019-03-19T05:18:46.974Z,100629.87
2019-03-19T05:21:52.231Z,100637.08
2019-03-19T05:24:57.392Z,100633.59
2019-03-19T05:28:02.615Z,100634.19
2019-03-19T05:31:07.802Z,100636.73
2019-03-19T05:34:12.973Z,100635.64
2019-03-19T05:37:18.195Z,100634.81
2019-03-19T05:40:23.516Z,100634.19
2019-03-19T05:43:28.712Z,100643.94
2019-03-19T05:46:33.871Z,100638.63
2019-03-19T05:49:38.992Z,100640.45
2019-03-19T05:52:44.173Z,100650.06
2019-03-19T05:55:49.344Z,100652.12
2019-03-19T05:58:54.519Z,100659.70
2019-03-19T06:01:59.730Z,100656.81
2019-03-19T06:05:05.237Z,100656.47
2019-03-19T06:08:10.394Z,100661.14
2019-03-19T06:11:15.621Z,100658.63
2019-03-19T06:14:20.987Z,100667.05
2019-03-19T06:17:26.174Z,100670.89
2019-03-19T06:20:31.315Z,100668.11
2019-03-19T06:23:36.500Z,100668.72
2019-03-19T06:26:41.645Z,100667.00
2019-03-19T06:29:46.840Z,100675.77
2019-03-19T06:32:52.009Z,100678.42
2019-03-19T06:35:57.254Z,100681.52
2019-03-19T06:39:02.455Z,100686.78
2019-03-19T06:42:07.673Z,100694.31
2019-03-19T06:45:13.928Z,100699.69
2019-03-19T06:48:19.173Z,100695.84
2019-03-19T06:51:25.998Z,100699.22
2019-03-19T06:54:31.135Z,100701.61
2019-03-19T06:57:39.457Z,100704.45
2019-03-19T07:00:43.045Z,100704.17
2019-03-19T07:03:48.149Z,100716.73
2019-03-19T07:06:53.487Z,100712.11
2019-03-19T07:09:58.669Z,100714.91
2019-03-19T07:13:03.776Z,100716.73
2019-03-19T07:16:08.976Z,100727.02
2019-03-19T07:19:14.140Z,100725.70
2019-03-19T07:22:19.284Z,100717.73
2019-03-19T07:25:24.383Z,100724.20
2019-03-19T07:28:30.472Z,100727.30
2019-03-19T07:31:35.610Z,100726.66
2019-03-19T07:34:40.828Z,100719.82
2019-03-19T07:37:45.995Z,100729.46
2019-03-19T07:40:51.179Z,100729.52
2019-03-19T07:43:56.315Z,100730.59
2019-03-19T07:47:01.391Z,100736.72
2019-03-19T07:50:07.794Z,100737.67
2019-03-19T07:53:12.936Z,100732.50
2019-03-19T07:56:18.123Z,100731.73
2019-03-19T07:59:23.370Z,100743.51
2019-03-19T08:02:28.653Z,100753.84
2019-03-19T08:05:33.976Z,100751.87
2019-03-19T08:08:39.223Z,100758.50
2019-03-19T08:11:44.366Z,100762.14
2019-03-19T08:14:49.489Z,100766.33
2019-03-19T08:17:54.638Z,100766.58
2019-03-19T08:20:59.798Z,100765.64
2019-03-19T08:24:04.969Z,100765.84
2019-03-19T08:27:10.215Z,100776.55
2019-03-19T08:30:16.533Z,100766.48
2019-03-19T08:33:21.671Z,100770.01
2019-03-19T08:36:26.863Z,100780.50
2019-03-19T08:39:32.023Z,100770.44
2019-03-19T08:42:37.188Z,100766.78
2019-03-19T08:45:42.395Z,100773.06
2019-03-19T08:48:47.496Z,100784.84
2019-03-19T08:51:52.643Z,100788.95
2019-03-19T08:54:58.910Z,100780.95
2019-03-19T08:58:04.118Z,100780.84
2019-03-19T09:01:09.209Z,100786.91
2019-03-19T09:04:14.413Z,100794.05
2019-03-19T09:07:20.183Z,100797.05
2019-03-19T09:10:25.491Z,100793.41
2019-03-19T09:13:30.669Z,100800.41
2019-03-19T09:16:35.917Z,100798.52
2019-03-19T09:19:41.018Z,100799.49
2019-03-19T09:22:46.159Z,100800.43
2019-03-19T09:25:52.355Z,100798.16
2019-03-19T09:28:57.518Z,100805.02
2019-03-19T09:32:02.741Z,100796.59
2019-03-19T09:35:07.811Z,100791.20
2019-03-19T09:38:12.968Z,100795.46
2019-03-19T09:41:18.123Z,100787.54
2019-03-19T09:44:23.443Z,100790.89
2019-03-19T09:47:28.547Z,100792.22
2019-03-19T09:50:33.763Z,100795.28
2019-03-19T09:53:39.978Z,100791.83
2019-03-19T09:56:45.148Z,100792.48
2019-03-19T09:59:50.289Z,100797.84
2019-03-19T10:02:55.462Z,100780.94
2019-03-19T10:06:12.643Z,100782.73
2019-03-19T10:09:08.881Z,100783.73
2019-03-19T10:12:14.053Z,100786.26
2019-03-19T10:15:19.948Z,100774.34
2019-03-19T10:18:25.054Z,100774.92
2019-03-19T10:21:30.234Z,100771.73
2019-03-19T10:24:35.408Z,100775.16
2019-03-19T10:27:40.490Z,100774.92
2019-03-19T10:30:45.660Z,100779.73
2019-03-19T10:33:50.870Z,100779.08
2019-03-19T10:36:55.998Z,100776.15
2019-03-19T10:40:01.252Z,100785.61
2019-03-19T10:43:06.545Z,100785.25
2019-03-19T10:46:11.672Z,100777.72
2019-03-19T10:49:16.772Z,100791.97
2019-03-19T10:52:21.962Z,100783.85
2019-03-19T10:55:27.090Z,100777.07
2019-03-19T10:58:32.201Z,100784.64
2019-03-19T11:01:37.313Z,100783.13
2019-03-19T11:04:42.418Z,100774.84
2019-03-19T11:07:47.604Z,100780.91
2019-03-19T11:10:52.745Z,100781.84
2019-03-19T11:13:57.865Z,100788.84
2019-03-19T11:17:02.953Z,100796.75
2019-03-19T11:20:09.209Z,100791.89
2019-03-19T11:23:14.386Z,100801.38
2019-03-19T11:26:19.667Z,100787.14
2019-03-19T11:29:24.842Z,100785.52
2019-03-19T11:32:30.126Z,100781.41
2019-03-19T11:35:35.237Z,100788.89
2019-03-19T11:38:40.427Z,100786.22
2019-03-19T11:41:45.556Z,100785.41
2019-03-19T11:44:50.687Z,100773.56
2019-03-19T11:47:55.898Z,100769.72
2019-03-19T11:51:01.236Z,100767.47
2019-03-19T11:54:06.446Z,100767.62
2019-03-19T11:57:11.620Z,100765.98
2019-03-19T12:00:49.637Z,100772.52
2019-03-19T12:03:54.829Z,100765.87
2019-03-19T12:07:01.162Z,100768.63
2019-03-19T12:10:06.640Z,100768.03
2019-03-19T12:13:11.805Z,100770.83
2019-03-19T12:16:16.929Z,100767.48
2019-03-19T12:19:22.166Z,100771.58
2019-03-19T12:22:27.262Z,100768.27
2019-03-19T12:25:32.447Z,100763.86
2019-03-19T12:28:39.892Z,100764.50
2019-03-19T12:31:44.498Z,100769.34
2019-03-19T12:34:49.504Z,100770.94
2019-03-19T12:37:54.706Z,100763.79
2019-03-19T12:40:59.855Z,100776.98
2019-03-19T12:44:05.046Z,100777.80
2019-03-19T12:47:10.214Z,100774.12
2019-03-19T12:50:16.576Z,100764.38
2019-03-19T12:53:22.864Z,100770.66
2019-03-19T12:56:28.194Z,100768.84
2019-03-19T12:59:33.373Z,100763.90
2019-03-19T13:02:38.467Z,100760.70
2019-03-19T13:05:43.627Z,100758.11
2019-03-19T13:08:48.874Z,100758.52
2019-03-19T13:11:54.014Z,100753.14
2019-03-19T13:14:59.238Z,100755.15
2019-03-19T13:18:04.381Z,100757.08
2019-03-19T13:21:09.602Z,100755.06
2019-03-19T13:24:17.159Z,100745.63
2019-03-19T13:27:21.587Z,100750.13
2019-03-19T13:30:26.757Z,100751.35
2019-03-19T13:33:31.930Z,100752.48
2019-03-19T13:36:37.095Z,100754.41
2019-03-19T13:39:42.195Z,100749.36
2019-03-19T13:42:47.548Z,100753.14
2019-03-19T13:45:52.774Z,100754.87
2019-03-19T13:48:57.904Z,100760.20
2019-03-19T13:52:03.079Z,100752.89
2019-03-19T13:55:11.335Z,100755.77
2019-03-19T13:58:16.600Z,100760.97
2019-03-19T14:01:21.773Z,100759.73
2019-03-19T14:04:26.886Z,100756.48
2019-03-19T14:07:32.063Z,100757.36
2019-03-19T14:10:37.169Z,100756.11
2019-03-19T14:13:42.307Z,100759.76
2019-03-19T14:16:47.455Z,100765.47
2019-03-19T14:19:52.606Z,100761.28
2019-03-19T14:23:00.526Z,100758.80
2019-03-19T14:26:05.725Z,100759.33
2019-03-19T14:29:10.801Z,100765.84
2019-03-19T14:32:16.050Z,100759.27
2019-03-19T14:35:21.204Z,100767.14
2019-03-19T14:38:26.472Z,100762.30
2019-03-19T14:41:31.616Z,100764.12
2019-03-19T14:44:36.798Z,100773.50
2019-03-19T14:47:41.896Z,100768.88
2019-03-19T14:50:47.089Z,100768.62
2019-03-19T14:53:52.223Z,100765.22
2019-03-19T14:56:57.496Z,100772.61
2019-03-19T15:00:02.627Z,100767.80
2019-03-19T15:03:08.320Z,100769.58
2019-03-19T15:06:13.439Z,100768.27
2019-03-19T15:09:18.665Z,100775.98
2019-03-19T15:12:23.863Z,100770.53
2019-03-19T15:15:29.071Z,100761.11
2019-03-19T15:18:34.158Z,100763.60
2019-03-19T15:21:39.403Z,100773.19
2019-03-19T15:24:44.789Z,100768.66
2019-03-19T15:27:50.033Z,100770.98
2019-03-19T15:30:55.236Z,100770.14
2019-03-19T15:34:00.371Z,100766.02
2019-03-19T15:37:05.508Z,100768.47
2019-03-19T15:40:12.448Z,100773.57
2019-03-19T15:43:17.579Z,100770.06
2019-03-19T15:46:22.789Z,100779.33
2019-03-19T15:49:37.826Z,100779.33
2019-03-19T15:52:34.848Z,100791.69
2019-03-19T15:55:41.997Z,100786.28
2019-03-19T15:58:47.189Z,100780.38
2019-03-19T16:01:52.308Z,100787.22
2019-03-19T16:04:57.479Z,100795.56
2019-03-19T16:08:02.639Z,100799.08
2019-03-19T16:11:08.253Z,100805.19
2019-03-19T16:14:13.385Z,100805.09
2019-03-19T16:17:18.614Z,100809.29
2019-03-19T16:20:23.746Z,100805.93
2019-03-19T16:23:28.932Z,100810.28
2019-03-19T16:26:34.215Z,100813.20
2019-03-19T16:29:39.485Z,100823.87
2019-03-19T16:32:44.589Z,100830.50
2019-03-19T16:35:49.720Z,100832.75
2019-03-19T16:38:54.860Z,100841.97
2019-03-19T16:42:00.063Z,100840.13
2019-03-19T16:45:05.603Z,100844.02
2019-03-19T16:48:10.827Z,100846.86
2019-03-19T16:51:16.004Z,100849.88
2019-03-19T16:54:21.203Z,100859.14
2019-03-19T16:57:26.421Z,100858.97
2019-03-19T17:00:31.611Z,100863.50
2019-03-19T17:03:36.799Z,100867.86
2019-03-19T17:06:42.006Z,100873.21
2019-03-19T17:09:47.090Z,100877.41
2019-03-19T17:12:52.293Z,100884.76
2019-03-19T17:15:57.501Z,100893.77
2019-03-19T17:19:04.136Z,100893.37
2019-03-19T17:22:09.503Z,100901.37
2019-03-19T17:25:15.624Z,100905.65
2019-03-19T17:28:22.774Z,100907.13
2019-03-19T17:31:27.773Z,100909.30
2019-03-19T17:34:32.979Z,100915.59
2019-03-19T17:37:38.202Z,100923.67
2019-03-19T17:40:43.323Z,100928.38
2019-03-19T17:43:48.522Z,100926.55
2019-03-19T17:46:53.750Z,100930.62
2019-03-19T17:49:58.950Z,100935.59
2019-03-19T17:53:04.102Z,100941.52
2019-03-19T17:56:10.088Z,100947.34
2019-03-19T17:59:16.409Z,100956.66
2019-03-19T18:02:24.263Z,100955.90
2019-03-19T18:05:31.165Z,100960.80
2019-03-19T18:08:36.357Z,100964.95
2019-03-19T18:11:41.545Z,100966.23
2019-03-19T18:14:46.744Z,100973.64
2019-03-19T18:17:51.962Z,100982.80
2019-03-19T18:20:57.152Z,100987.45
2019-03-19T18:24:02.392Z,100992.77
2019-03-19T18:27:07.554Z,100984.40
2019-03-19T18:30:13.477Z,100993.78
2019-03-19T18:33:18.632Z,100998.90
2019-03-19T18:36:23.823Z,101000.23
2019-03-19T18:39:29.009Z,101003.50
2019-03-19T18:42:34.171Z,101003.79
2019-03-19T18:45:39.345Z,101004.94
2019-03-19T18:48:44.630Z,101009.38
2019-03-19T18:51:49.881Z,101009.38
2019-03-19T18:54:55.078Z,101017.16
2019-03-19T18:58:00.305Z,101020.53
2019-03-19T19:01:05.488Z,101023.25
2019-03-19T19:04:10.654Z,101027.45
2019-03-19T19:07:15.793Z,101037.47
2019-03-19T19:10:21.739Z,101036.52
2019-03-19T19:13:27.140Z,101048.03
2019-03-19T19:16:32.353Z,101041.20
2019-03-19T19:19:37.627Z,101046.75
2019-03-19T19:22:42.815Z,101049.19
2019-03-19T19:25:47.968Z,101050.60
2019-03-19T19:28:53.167Z,101055.98
2019-03-19T19:31:58.299Z,101063.25
2019-03-19T19:35:04.539Z,101063.41
2019-03-19T19:38:09.761Z,101079.30
2019-03-19T19:41:15.244Z,101077.97
2019-03-19T19:44:20.438Z,101076.20
2019-03-19T19:47:25.587Z,101074.08
2019-03-19T19:50:31.839Z,101077.02
2019-03-19T19:53:37.024Z,101079.22
2019-03-19T19:56:42.204Z,101084.48
2019-03-19T19:59:47.365Z,101086.04
2019-03-19T20:02:52.507Z,101095.23
2019-03-19T20:05:57.733Z,101090.75
2019-03-19T20:09:03.508Z,101086.18
2019-03-19T20:12:09.063Z,101097.56
2019-03-19T20:15:14.340Z,101096.97
2019-03-19T20:18:19.663Z,101099.38
2019-03-19T20:21:24.773Z,101099.14
2019-03-19T20:24:29.894Z,101107.09
2019-03-19T20:27:35.102Z,101110.81
2019-03-19T20:30:40.218Z,101113.46
2019-03-19T20:33:45.387Z,101110.23
2019-03-19T20:36:50.677Z,101109.73
2019-03-19T20:39:56.003Z,101118.00
2019-03-19T20:43:01.167Z,101125.13
2019-03-19T20:46:06.885Z,101123.33
2019-03-19T20:49:12.061Z,101128.10
2019-03-19T20:52:17.227Z,101131.49
2019-03-19T20:55:22.411Z,101136.78
2019-03-19T20:58:27.664Z,101143.90
2019-03-19T21:01:34.035Z,101143.75
2019-03-19T21:04:39.289Z,101139.75
2019-03-19T21:07:44.419Z,101145.50
2019-03-19T21:10:49.708Z,101159.97
2019-03-19T21:13:54.887Z,101161.00
2019-03-19T21:17:00.034Z,101162.19
2019-03-19T21:20:05.693Z,101160.35
2019-03-19T21:23:10.884Z,101156.14
2019-03-19T21:26:16.249Z,101166.19
2019-03-19T21:29:21.684Z,101171.70
2019-03-19T21:32:27.087Z,101161.52
2019-03-19T21:35:32.293Z,101168.34
2019-03-19T21:38:37.456Z,101167.69
2019-03-19T21:41:42.649Z,101173.57
2019-03-19T21:44:47.786Z,101176.52
2019-03-19T21:47:52.918Z,101180.65
2019-03-19T21:50:58.033Z,101182.55
2019-03-19T21:54:03.308Z,101188.08
2019-03-19T21:57:07.902Z,101189.47
2019-03-19T22:00:14.905Z,101200.81
2019-03-19T22:03:20.207Z,101200.04
2019-03-19T22:06:25.553Z,101197.88
2019-03-19T22:09:30.796Z,101206.17
2019-03-19T22:12:35.984Z,101217.67
2019-03-19T22:15:41.243Z,101218.77
2019-03-19T22:18:46.475Z,101208.44
2019-03-19T22:21:51.748Z,101215.95
2019-03-19T22:24:56.833Z,101217.17
2019-03-19T22:28:02.141Z,101213.19
2019-03-19T22:31:07.414Z,101220.47
2019-03-19T22:34:14.249Z,101224.50
2019-03-19T22:37:19.425Z,101223.34
2019-03-19T22:40:25.669Z,101223.80
2019-03-19T22:43:30.903Z,101236.52
2019-03-19T22:46:36.110Z,101236.43
2019-03-19T22:49:41.326Z,101235.72
2019-03-19T22:52:46.497Z,101236.59
2019-03-19T22:55:51.578Z,101237.63
2019-03-19T22:58:56.758Z,101244.06
2019-03-19T23:02:01.980Z,101246.05
2019-03-19T23:05:08.079Z,101255.41
2019-03-19T23:08:13.238Z,101255.80
2019-03-19T23:11:18.480Z,101254.44
2019-03-19T23:14:23.972Z,101251.43
2019-03-19T23:17:29.133Z,101251.78
2019-03-19T23:20:34.386Z,101254.19
2019-03-19T23:23:39.671Z,101256.95
2019-03-19T23:26:44.847Z,101261.97
2019-03-19T23:29:50.092Z,101259.13
2019-03-19T23:32:55.306Z,101264.16
2019-03-19T23:36:00.470Z,101271.63
2019-03-19T23:39:07.548Z,101272.80
2019-03-19T23:42:12.793Z,101272.62
2019-03-19T23:45:18.199Z,101274.34
2019-03-19T23:48:23.362Z,101279.42
2019-03-19T23:51:28.551Z,101276.75
2019-03-19T23:54:33.723Z,101272.95
2019-03-19T23:57:38.936Z,101274.60
